sensor_id;sensor_type;location;lat;lon;timestamp;temperature;humidity
76787;DHT22;65739;51.482;5.702;2023-07-13T00:02:23;15.40;99.90
76787;DHT22;65739;51.482;5.702;2023-07-13T00:04:48;15.40;99.90
76787;DHT22;65739;51.482;5.702;2023-07-13T00:07:14;15.40;99.90
76787;DHT22;65739;51.482;5.702;2023-07-13T00:09:40;15.40;99.90
76787;DHT22;65739;51.482;5.702;2023-07-13T00:12:31;15.30;99.90
76787;DHT22;65739;51.482;5.702;2023-07-13T00:14:59;15.20;99.90
76787;DHT22;65739;51.482;5.702;2023-07-13T00:17:26;15.30;99.90
76787;DHT22;65739;51.482;5.702;2023-07-13T00:19:52;15.20;99.90
76787;DHT22;65739;51.482;5.702;2023-07-13T00:22:19;15.10;99.90
76787;DHT22;65739;51.482;5.702;2023-07-13T00:24:44;15.00;99.90
76787;DHT22;65739;51.482;5.702;2023-07-13T00:27:10;15.10;99.90
76787;DHT22;65739;51.482;5.702;2023-07-13T00:29:37;15.00;99.90
76787;DHT22;65739;51.482;5.702;2023-07-13T00:32:04;15.10;99.90
76787;DHT22;65739;51.482;5.702;2023-07-13T00:34:30;15.10;99.90
76787;DHT22;65739;51.482;5.702;2023-07-13T00:36:56;15.20;99.90
76787;DHT22;65739;51.482;5.702;2023-07-13T00:39:22;15.10;99.90
76787;DHT22;65739;51.482;5.702;2023-07-13T00:41:48;15.10;99.90
76787;DHT22;65739;51.482;5.702;2023-07-13T00:44:15;15.10;99.90
76787;DHT22;65739;51.482;5.702;2023-07-13T00:46:41;15.20;99.90
76787;DHT22;65739;51.482;5.702;2023-07-13T00:49:08;15.10;99.90
76787;DHT22;65739;51.482;5.702;2023-07-13T00:51:55;15.00;99.90
76787;DHT22;65739;51.482;5.702;2023-07-13T00:54:24;15.00;99.90
76787;DHT22;65739;51.482;5.702;2023-07-13T00:56:54;15.10;99.90
76787;DHT22;65739;51.482;5.702;2023-07-13T00:59:21;14.90;99.90
76787;DHT22;65739;51.482;5.702;2023-07-13T01:01:48;14.90;99.90
76787;DHT22;65739;51.482;5.702;2023-07-13T01:04:14;14.90;99.90
76787;DHT22;65739;51.482;5.702;2023-07-13T01:06:40;15.00;99.90
76787;DHT22;65739;51.482;5.702;2023-07-13T01:09:07;14.80;99.90
76787;DHT22;65739;51.482;5.702;2023-07-13T01:11:33;14.80;99.90
76787;DHT22;65739;51.482;5.702;2023-07-13T01:14:00;14.70;99.90
76787;DHT22;65739;51.482;5.702;2023-07-13T01:16:30;14.70;99.90
76787;DHT22;65739;51.482;5.702;2023-07-13T01:18:57;14.80;99.90
76787;DHT22;65739;51.482;5.702;2023-07-13T01:21:24;14.80;99.90
76787;DHT22;65739;51.482;5.702;2023-07-13T01:23:49;14.80;99.90
76787;DHT22;65739;51.482;5.702;2023-07-13T01:26:15;14.80;99.90
76787;DHT22;65739;51.482;5.702;2023-07-13T01:28:41;14.70;99.90
76787;DHT22;65739;51.482;5.702;2023-07-13T01:31:06;14.80;99.90
76787;DHT22;65739;51.482;5.702;2023-07-13T01:33:33;14.80;99.90
76787;DHT22;65739;51.482;5.702;2023-07-13T01:35:59;14.70;99.90
76787;DHT22;65739;51.482;5.702;2023-07-13T01:38:27;14.70;99.90
76787;DHT22;65739;51.482;5.702;2023-07-13T01:40:53;14.60;99.90
76787;DHT22;65739;51.482;5.702;2023-07-13T01:43:19;14.70;99.90
76787;DHT22;65739;51.482;5.702;2023-07-13T01:45:45;14.60;99.90
76787;DHT22;65739;51.482;5.702;2023-07-13T01:48:11;14.60;99.90
76787;DHT22;65739;51.482;5.702;2023-07-13T01:50:38;14.60;99.90
76787;DHT22;65739;51.482;5.702;2023-07-13T01:53:04;14.70;99.90
76787;DHT22;65739;51.482;5.702;2023-07-13T01:55:30;14.70;99.90
76787;DHT22;65739;51.482;5.702;2023-07-13T01:57:56;14.60;99.90
76787;DHT22;65739;51.482;5.702;2023-07-13T02:00:22;14.60;99.90
76787;DHT22;65739;51.482;5.702;2023-07-13T02:02:48;14.50;99.90
76787;DHT22;65739;51.482;5.702;2023-07-13T02:05:14;14.50;99.90
76787;DHT22;65739;51.482;5.702;2023-07-13T02:07:40;14.40;99.90
76787;DHT22;65739;51.482;5.702;2023-07-13T02:10:07;14.50;99.90
76787;DHT22;65739;51.482;5.702;2023-07-13T02:12:34;14.30;99.90
76787;DHT22;65739;51.482;5.702;2023-07-13T02:15:00;14.30;99.90
76787;DHT22;65739;51.482;5.702;2023-07-13T02:17:26;14.30;99.90
76787;DHT22;65739;51.482;5.702;2023-07-13T02:19:52;14.30;99.90
76787;DHT22;65739;51.482;5.702;2023-07-13T02:22:18;14.30;99.90
76787;DHT22;65739;51.482;5.702;2023-07-13T02:24:44;14.20;99.90
76787;DHT22;65739;51.482;5.702;2023-07-13T02:27:10;14.20;99.90
76787;DHT22;65739;51.482;5.702;2023-07-13T02:29:35;14.20;99.90
76787;DHT22;65739;51.482;5.702;2023-07-13T02:32:01;14.20;99.90
76787;DHT22;65739;51.482;5.702;2023-07-13T02:34:27;14.20;99.90
76787;DHT22;65739;51.482;5.702;2023-07-13T02:36:52;14.10;99.90
76787;DHT22;65739;51.482;5.702;2023-07-13T02:39:18;14.10;99.90
76787;DHT22;65739;51.482;5.702;2023-07-13T02:41:43;14.00;99.90
76787;DHT22;65739;51.482;5.702;2023-07-13T02:44:09;14.00;99.90
76787;DHT22;65739;51.482;5.702;2023-07-13T02:46:36;14.00;99.90
76787;DHT22;65739;51.482;5.702;2023-07-13T02:49:03;14.00;99.90
76787;DHT22;65739;51.482;5.702;2023-07-13T02:51:29;14.00;99.90
76787;DHT22;65739;51.482;5.702;2023-07-13T02:53:55;14.00;99.90
76787;DHT22;65739;51.482;5.702;2023-07-13T02:56:26;14.10;99.90
76787;DHT22;65739;51.482;5.702;2023-07-13T02:58:52;14.10;99.90
76787;DHT22;65739;51.482;5.702;2023-07-13T03:01:18;14.10;99.90
76787;DHT22;65739;51.482;5.702;2023-07-13T03:03:45;14.00;99.90
76787;DHT22;65739;51.482;5.702;2023-07-13T03:06:12;14.00;99.90
76787;DHT22;65739;51.482;5.702;2023-07-13T03:08:37;13.90;99.90
76787;DHT22;65739;51.482;5.702;2023-07-13T03:11:05;13.90;99.90
76787;DHT22;65739;51.482;5.702;2023-07-13T03:13:31;13.90;99.90
76787;DHT22;65739;51.482;5.702;2023-07-13T03:15:57;13.90;99.90
76787;DHT22;65739;51.482;5.702;2023-07-13T03:18:23;13.80;99.90
76787;DHT22;65739;51.482;5.702;2023-07-13T03:20:52;13.80;99.90
76787;DHT22;65739;51.482;5.702;2023-07-13T03:23:18;13.80;99.90
76787;DHT22;65739;51.482;5.702;2023-07-13T03:25:44;13.80;99.90
76787;DHT22;65739;51.482;5.702;2023-07-13T03:28:11;13.80;99.90
76787;DHT22;65739;51.482;5.702;2023-07-13T03:30:37;13.80;99.90
76787;DHT22;65739;51.482;5.702;2023-07-13T03:33:03;13.80;99.90
76787;DHT22;65739;51.482;5.702;2023-07-13T03:35:28;13.80;99.90
76787;DHT22;65739;51.482;5.702;2023-07-13T03:37:54;13.80;99.90
76787;DHT22;65739;51.482;5.702;2023-07-13T03:40:20;13.70;99.90
76787;DHT22;65739;51.482;5.702;2023-07-13T03:42:46;13.70;99.90
76787;DHT22;65739;51.482;5.702;2023-07-13T03:45:12;13.70;99.90
76787;DHT22;65739;51.482;5.702;2023-07-13T03:47:37;13.80;99.90
76787;DHT22;65739;51.482;5.702;2023-07-13T03:50:03;13.70;99.90
76787;DHT22;65739;51.482;5.702;2023-07-13T03:52:29;13.70;99.90
76787;DHT22;65739;51.482;5.702;2023-07-13T03:54:55;13.70;99.90
76787;DHT22;65739;51.482;5.702;2023-07-13T03:57:20;13.80;99.90
76787;DHT22;65739;51.482;5.702;2023-07-13T03:59:46;13.80;99.90
76787;DHT22;65739;51.482;5.702;2023-07-13T04:02:11;13.80;99.90
76787;DHT22;65739;51.482;5.702;2023-07-13T04:04:37;13.80;99.90
76787;DHT22;65739;51.482;5.702;2023-07-13T04:07:06;13.80;99.90
76787;DHT22;65739;51.482;5.702;2023-07-13T04:09:33;13.80;99.90
76787;DHT22;65739;51.482;5.702;2023-07-13T04:11:59;13.80;99.90
76787;DHT22;65739;51.482;5.702;2023-07-13T04:14:24;13.80;99.90
76787;DHT22;65739;51.482;5.702;2023-07-13T04:16:50;13.80;99.90
76787;DHT22;65739;51.482;5.702;2023-07-13T04:19:16;13.80;99.90
76787;DHT22;65739;51.482;5.702;2023-07-13T04:21:41;13.90;99.90
76787;DHT22;65739;51.482;5.702;2023-07-13T04:24:07;13.90;99.90
76787;DHT22;65739;51.482;5.702;2023-07-13T04:26:33;13.90;99.90
76787;DHT22;65739;51.482;5.702;2023-07-13T04:29:01;14.00;99.90
76787;DHT22;65739;51.482;5.702;2023-07-13T04:31:29;14.00;99.90
76787;DHT22;65739;51.482;5.702;2023-07-13T04:33:55;14.00;99.90
76787;DHT22;65739;51.482;5.702;2023-07-13T04:36:20;14.10;99.90
76787;DHT22;65739;51.482;5.702;2023-07-13T04:38:46;14.20;99.90
76787;DHT22;65739;51.482;5.702;2023-07-13T04:41:15;14.20;99.90
76787;DHT22;65739;51.482;5.702;2023-07-13T04:43:41;14.20;99.90
76787;DHT22;65739;51.482;5.702;2023-07-13T04:46:09;14.40;99.90
76787;DHT22;65739;51.482;5.702;2023-07-13T04:48:36;14.60;99.90
76787;DHT22;65739;51.482;5.702;2023-07-13T04:51:02;14.60;99.90
76787;DHT22;65739;51.482;5.702;2023-07-13T04:53:29;14.70;99.90
76787;DHT22;65739;51.482;5.702;2023-07-13T04:55:54;14.80;99.90
76787;DHT22;65739;51.482;5.702;2023-07-13T04:58:21;14.90;99.90
76787;DHT22;65739;51.482;5.702;2023-07-13T05:00:47;14.90;99.90
76787;DHT22;65739;51.482;5.702;2023-07-13T05:03:12;15.10;99.90
76787;DHT22;65739;51.482;5.702;2023-07-13T05:05:40;15.10;99.90
76787;DHT22;65739;51.482;5.702;2023-07-13T05:08:06;15.20;99.90
76787;DHT22;65739;51.482;5.702;2023-07-13T05:10:33;15.40;99.90
76787;DHT22;65739;51.482;5.702;2023-07-13T05:12:58;15.30;99.90
76787;DHT22;65739;51.482;5.702;2023-07-13T05:15:24;15.50;99.90
76787;DHT22;65739;51.482;5.702;2023-07-13T05:17:50;15.60;99.90
76787;DHT22;65739;51.482;5.702;2023-07-13T05:20:18;15.60;99.90
76787;DHT22;65739;51.482;5.702;2023-07-13T05:22:44;15.60;99.90
76787;DHT22;65739;51.482;5.702;2023-07-13T05:25:09;15.70;99.90
76787;DHT22;65739;51.482;5.702;2023-07-13T05:27:36;15.70;99.90
76787;DHT22;65739;51.482;5.702;2023-07-13T05:30:03;15.80;99.90
76787;DHT22;65739;51.482;5.702;2023-07-13T05:32:28;15.90;99.90
76787;DHT22;65739;51.482;5.702;2023-07-13T05:34:54;16.00;99.90
76787;DHT22;65739;51.482;5.702;2023-07-13T05:37:20;16.10;99.90
76787;DHT22;65739;51.482;5.702;2023-07-13T05:39:46;16.20;99.90
76787;DHT22;65739;51.482;5.702;2023-07-13T05:42:11;16.30;99.90
76787;DHT22;65739;51.482;5.702;2023-07-13T05:44:37;16.50;99.90
76787;DHT22;65739;51.482;5.702;2023-07-13T05:47:02;16.50;99.90
76787;DHT22;65739;51.482;5.702;2023-07-13T05:49:29;16.60;99.90
76787;DHT22;65739;51.482;5.702;2023-07-13T05:51:56;16.70;99.90
76787;DHT22;65739;51.482;5.702;2023-07-13T05:54:22;16.80;99.90
76787;DHT22;65739;51.482;5.702;2023-07-13T05:56:47;17.00;99.90
76787;DHT22;65739;51.482;5.702;2023-07-13T05:59:13;16.90;99.90
76787;DHT22;65739;51.482;5.702;2023-07-13T06:01:38;16.90;99.90
76787;DHT22;65739;51.482;5.702;2023-07-13T06:04:04;17.00;99.90
76787;DHT22;65739;51.482;5.702;2023-07-13T06:06:30;17.00;99.90
76787;DHT22;65739;51.482;5.702;2023-07-13T06:08:56;17.00;99.90
76787;DHT22;65739;51.482;5.702;2023-07-13T06:11:24;16.90;99.90
76787;DHT22;65739;51.482;5.702;2023-07-13T06:13:50;16.90;99.90
76787;DHT22;65739;51.482;5.702;2023-07-13T06:16:16;16.80;99.90
76787;DHT22;65739;51.482;5.702;2023-07-13T06:18:42;16.90;99.90
76787;DHT22;65739;51.482;5.702;2023-07-13T06:21:15;16.90;99.90
76787;DHT22;65739;51.482;5.702;2023-07-13T06:23:41;17.00;99.90
76787;DHT22;65739;51.482;5.702;2023-07-13T06:26:07;17.10;99.90
76787;DHT22;65739;51.482;5.702;2023-07-13T06:28:34;17.40;99.90
76787;DHT22;65739;51.482;5.702;2023-07-13T06:31:00;17.60;99.90
76787;DHT22;65739;51.482;5.702;2023-07-13T06:33:26;17.70;99.90
76787;DHT22;65739;51.482;5.702;2023-07-13T06:35:52;17.70;99.90
76787;DHT22;65739;51.482;5.702;2023-07-13T06:38:18;17.70;99.90
76787;DHT22;65739;51.482;5.702;2023-07-13T06:40:44;17.80;99.90
76787;DHT22;65739;51.482;5.702;2023-07-13T06:43:09;17.70;99.90
76787;DHT22;65739;51.482;5.702;2023-07-13T06:45:40;17.60;99.90
76787;DHT22;65739;51.482;5.702;2023-07-13T06:48:06;17.50;99.90
76787;DHT22;65739;51.482;5.702;2023-07-13T06:50:33;17.50;99.90
76787;DHT22;65739;51.482;5.702;2023-07-13T06:52:59;17.40;99.90
76787;DHT22;65739;51.482;5.702;2023-07-13T06:55:25;17.50;99.90
76787;DHT22;65739;51.482;5.702;2023-07-13T06:57:51;17.60;99.90
76787;DHT22;65739;51.482;5.702;2023-07-13T07:00:17;17.80;99.90
76787;DHT22;65739;51.482;5.702;2023-07-13T07:02:43;17.80;99.90
76787;DHT22;65739;51.482;5.702;2023-07-13T07:05:08;17.70;99.90
76787;DHT22;65739;51.482;5.702;2023-07-13T07:07:34;17.80;99.90
76787;DHT22;65739;51.482;5.702;2023-07-13T07:10:00;17.80;99.90
76787;DHT22;65739;51.482;5.702;2023-07-13T07:12:25;17.80;99.90
76787;DHT22;65739;51.482;5.702;2023-07-13T07:14:51;17.70;99.90
76787;DHT22;65739;51.482;5.702;2023-07-13T07:17:16;17.80;99.90
76787;DHT22;65739;51.482;5.702;2023-07-13T07:19:42;17.80;99.90
76787;DHT22;65739;51.482;5.702;2023-07-13T07:22:08;17.80;99.90
76787;DHT22;65739;51.482;5.702;2023-07-13T07:24:33;17.70;99.90
76787;DHT22;65739;51.482;5.702;2023-07-13T07:26:59;17.80;99.90
76787;DHT22;65739;51.482;5.702;2023-07-13T07:29:24;18.00;99.90
76787;DHT22;65739;51.482;5.702;2023-07-13T07:31:52;18.00;99.90
76787;DHT22;65739;51.482;5.702;2023-07-13T07:34:17;18.20;99.90
76787;DHT22;65739;51.482;5.702;2023-07-13T07:36:43;18.40;99.90
76787;DHT22;65739;51.482;5.702;2023-07-13T07:39:08;18.50;99.90
76787;DHT22;65739;51.482;5.702;2023-07-13T07:41:34;18.70;99.90
76787;DHT22;65739;51.482;5.702;2023-07-13T07:44:00;18.90;99.90
76787;DHT22;65739;51.482;5.702;2023-07-13T07:46:25;19.00;99.90
76787;DHT22;65739;51.482;5.702;2023-07-13T07:48:51;18.90;99.90
76787;DHT22;65739;51.482;5.702;2023-07-13T07:51:16;18.80;99.90
76787;DHT22;65739;51.482;5.702;2023-07-13T07:53:42;18.60;99.90
76787;DHT22;65739;51.482;5.702;2023-07-13T07:56:08;18.60;99.90
76787;DHT22;65739;51.482;5.702;2023-07-13T07:58:35;18.60;99.90
76787;DHT22;65739;51.482;5.702;2023-07-13T08:01:05;18.70;99.90
76787;DHT22;65739;51.482;5.702;2023-07-13T08:03:31;18.90;99.90
76787;DHT22;65739;51.482;5.702;2023-07-13T08:05:57;19.00;99.90
76787;DHT22;65739;51.482;5.702;2023-07-13T08:08:23;19.00;99.90
76787;DHT22;65739;51.482;5.702;2023-07-13T08:10:48;19.10;99.90
76787;DHT22;65739;51.482;5.702;2023-07-13T08:13:14;19.00;99.90
76787;DHT22;65739;51.482;5.702;2023-07-13T08:15:39;19.10;99.90
76787;DHT22;65739;51.482;5.702;2023-07-13T08:18:06;19.40;99.90
76787;DHT22;65739;51.482;5.702;2023-07-13T08:20:32;19.70;99.90
76787;DHT22;65739;51.482;5.702;2023-07-13T08:22:59;19.90;99.90
76787;DHT22;65739;51.482;5.702;2023-07-13T08:25:24;19.70;99.90
76787;DHT22;65739;51.482;5.702;2023-07-13T08:27:50;19.50;99.90
76787;DHT22;65739;51.482;5.702;2023-07-13T08:30:15;19.60;99.90
76787;DHT22;65739;51.482;5.702;2023-07-13T08:32:41;20.00;99.90
76787;DHT22;65739;51.482;5.702;2023-07-13T08:35:07;20.20;99.90
76787;DHT22;65739;51.482;5.702;2023-07-13T08:37:32;20.10;99.90
76787;DHT22;65739;51.482;5.702;2023-07-13T08:39:58;20.00;99.90
76787;DHT22;65739;51.482;5.702;2023-07-13T08:42:35;20.30;99.90
76787;DHT22;65739;51.482;5.702;2023-07-13T08:47:57;20.50;99.90
76787;DHT22;65739;51.482;5.702;2023-07-13T08:50:33;20.80;99.90
76787;DHT22;65739;51.482;5.702;2023-07-13T08:53:02;20.50;99.90
76787;DHT22;65739;51.482;5.702;2023-07-13T08:55:33;20.60;99.90
76787;DHT22;65739;51.482;5.702;2023-07-13T08:58:15;20.40;99.90
76787;DHT22;65739;51.482;5.702;2023-07-13T09:03:20;20.60;99.90
76787;DHT22;65739;51.482;5.702;2023-07-13T09:05:52;20.90;99.90
76787;DHT22;65739;51.482;5.702;2023-07-13T09:08:48;21.10;99.90
76787;DHT22;65739;51.482;5.702;2023-07-13T09:14:53;22.00;99.90
76787;DHT22;65739;51.482;5.702;2023-07-13T09:17:33;21.70;99.90
76787;DHT22;65739;51.482;5.702;2023-07-13T09:20:13;21.70;99.90
76787;DHT22;65739;51.482;5.702;2023-07-13T09:22:41;22.00;99.90
76787;DHT22;65739;51.482;5.702;2023-07-13T09:25:32;21.50;99.90
76787;DHT22;65739;51.482;5.702;2023-07-13T09:28:18;21.40;99.90
76787;DHT22;65739;51.482;5.702;2023-07-13T09:30:52;21.00;99.90
76787;DHT22;65739;51.482;5.702;2023-07-13T09:33:22;21.00;99.90
76787;DHT22;65739;51.482;5.702;2023-07-13T09:35:48;21.80;99.90
76787;DHT22;65739;51.482;5.702;2023-07-13T09:38:17;21.70;99.90
76787;DHT22;65739;51.482;5.702;2023-07-13T09:43:34;21.20;99.90
76787;DHT22;65739;51.482;5.702;2023-07-13T09:46:00;21.70;99.90
76787;DHT22;65739;51.482;5.702;2023-07-13T09:48:36;21.60;99.90
76787;DHT22;65739;51.482;5.702;2023-07-13T09:51:14;21.50;99.90
76787;DHT22;65739;51.482;5.702;2023-07-13T09:53:44;21.50;99.90
76787;DHT22;65739;51.482;5.702;2023-07-13T09:56:27;21.70;99.90
76787;DHT22;65739;51.482;5.702;2023-07-13T09:58:55;22.50;99.90
76787;DHT22;65739;51.482;5.702;2023-07-13T10:01:38;23.30;99.90
76787;DHT22;65739;51.482;5.702;2023-07-13T10:04:13;24.20;99.90
76787;DHT22;65739;51.482;5.702;2023-07-13T10:06:41;23.80;99.90
76787;DHT22;65739;51.482;5.702;2023-07-13T10:09:09;23.00;99.90
76787;DHT22;65739;51.482;5.702;2023-07-13T10:11:36;22.30;99.90
76787;DHT22;65739;51.482;5.702;2023-07-13T10:14:15;22.30;99.90
76787;DHT22;65739;51.482;5.702;2023-07-13T10:16:43;22.60;99.90
76787;DHT22;65739;51.482;5.702;2023-07-13T10:19:17;23.20;99.90
76787;DHT22;65739;51.482;5.702;2023-07-13T10:21:57;23.20;99.90
76787;DHT22;65739;51.482;5.702;2023-07-13T10:24:29;23.70;99.90
76787;DHT22;65739;51.482;5.702;2023-07-13T10:27:05;23.60;99.90
76787;DHT22;65739;51.482;5.702;2023-07-13T10:29:38;23.20;99.90
76787;DHT22;65739;51.482;5.702;2023-07-13T10:32:15;23.90;99.90
76787;DHT22;65739;51.482;5.702;2023-07-13T10:34:43;24.80;99.90
76787;DHT22;65739;51.482;5.702;2023-07-13T10:37:19;25.10;99.90
76787;DHT22;65739;51.482;5.702;2023-07-13T10:39:52;24.40;99.90
76787;DHT22;65739;51.482;5.702;2023-07-13T10:44:51;24.70;99.90
76787;DHT22;65739;51.482;5.702;2023-07-13T10:47:17;24.00;99.90
76787;DHT22;65739;51.482;5.702;2023-07-13T10:49:44;24.10;99.90
76787;DHT22;65739;51.482;5.702;2023-07-13T10:53:02;23.70;99.90
76787;DHT22;65739;51.482;5.702;2023-07-13T10:55:53;23.80;99.90
76787;DHT22;65739;51.482;5.702;2023-07-13T10:58:40;23.80;99.90
76787;DHT22;65739;51.482;5.702;2023-07-13T11:03:33;24.70;99.90
76787;DHT22;65739;51.482;5.702;2023-07-13T11:06:13;24.90;99.90
76787;DHT22;65739;51.482;5.702;2023-07-13T11:11:34;24.50;99.90
76787;DHT22;65739;51.482;5.702;2023-07-13T11:14:02;23.80;99.90
76787;DHT22;65739;51.482;5.702;2023-07-13T11:16:36;23.40;99.90
76787;DHT22;65739;51.482;5.702;2023-07-13T11:21:31;21.60;99.90
76787;DHT22;65739;51.482;5.702;2023-07-13T11:24:17;20.80;99.90
76787;DHT22;65739;51.482;5.702;2023-07-13T11:31:51;21.80;99.90
76787;DHT22;65739;51.482;5.702;2023-07-13T11:34:19;22.00;99.90
76787;DHT22;65739;51.482;5.702;2023-07-13T11:36:47;21.90;99.90
76787;DHT22;65739;51.482;5.702;2023-07-13T11:42:02;22.80;99.90
76787;DHT22;65739;51.482;5.702;2023-07-13T11:44:30;22.70;99.90
76787;DHT22;65739;51.482;5.702;2023-07-13T11:46:58;22.30;99.90
76787;DHT22;65739;51.482;5.702;2023-07-13T11:49:30;21.80;99.90
76787;DHT22;65739;51.482;5.702;2023-07-13T11:51:57;21.50;99.90
76787;DHT22;65739;51.482;5.702;2023-07-13T11:54:32;21.90;99.90
76787;DHT22;65739;51.482;5.702;2023-07-13T11:57:06;23.10;99.90
76787;DHT22;65739;51.482;5.702;2023-07-13T11:59:40;23.00;99.90
76787;DHT22;65739;51.482;5.702;2023-07-13T12:02:15;22.80;99.90
76787;DHT22;65739;51.482;5.702;2023-07-13T12:04:42;22.70;99.90
76787;DHT22;65739;51.482;5.702;2023-07-13T12:07:16;22.70;99.90
76787;DHT22;65739;51.482;5.702;2023-07-13T12:09:42;22.50;99.90
76787;DHT22;65739;51.482;5.702;2023-07-13T12:12:12;22.20;99.90
76787;DHT22;65739;51.482;5.702;2023-07-13T12:14:38;21.90;99.90
76787;DHT22;65739;51.482;5.702;2023-07-13T12:17:15;21.90;99.90
76787;DHT22;65739;51.482;5.702;2023-07-13T12:19:41;22.10;99.90
76787;DHT22;65739;51.482;5.702;2023-07-13T12:22:10;22.10;99.90
76787;DHT22;65739;51.482;5.702;2023-07-13T12:24:37;21.90;99.90
76787;DHT22;65739;51.482;5.702;2023-07-13T12:27:04;21.40;99.90
76787;DHT22;65739;51.482;5.702;2023-07-13T12:29:32;21.00;99.90
76787;DHT22;65739;51.482;5.702;2023-07-13T12:31:58;20.80;99.90
76787;DHT22;65739;51.482;5.702;2023-07-13T12:34:25;20.50;99.90
76787;DHT22;65739;51.482;5.702;2023-07-13T12:37:02;20.50;99.90
76787;DHT22;65739;51.482;5.702;2023-07-13T12:39:36;20.50;99.90
76787;DHT22;65739;51.482;5.702;2023-07-13T12:44:47;21.20;99.90
76787;DHT22;65739;51.482;5.702;2023-07-13T12:47:14;21.90;99.90
76787;DHT22;65739;51.482;5.702;2023-07-13T12:49:48;22.70;99.90
76787;DHT22;65739;51.482;5.702;2023-07-13T12:52:20;22.70;99.90
76787;DHT22;65739;51.482;5.702;2023-07-13T12:54:58;22.40;99.90
76787;DHT22;65739;51.482;5.702;2023-07-13T12:57:25;22.10;99.90
76787;DHT22;65739;51.482;5.702;2023-07-13T12:59:55;21.90;99.90
76787;DHT22;65739;51.482;5.702;2023-07-13T13:02:33;21.90;99.90
76787;DHT22;65739;51.482;5.702;2023-07-13T13:05:00;21.80;99.90
76787;DHT22;65739;51.482;5.702;2023-07-13T13:07:26;21.90;99.90
76787;DHT22;65739;51.482;5.702;2023-07-13T13:09:52;21.80;99.90
76787;DHT22;65739;51.482;5.702;2023-07-13T13:12:19;21.90;99.90
76787;DHT22;65739;51.482;5.702;2023-07-13T13:14:45;22.20;99.90
76787;DHT22;65739;51.482;5.702;2023-07-13T13:17:23;22.40;99.90
76787;DHT22;65739;51.482;5.702;2023-07-13T13:19:51;22.20;99.90
76787;DHT22;65739;51.482;5.702;2023-07-13T13:22:19;21.90;99.90
76787;DHT22;65739;51.482;5.702;2023-07-13T13:24:45;21.70;99.90
76787;DHT22;65739;51.482;5.702;2023-07-13T13:27:22;21.50;99.90
76787;DHT22;65739;51.482;5.702;2023-07-13T13:29:50;21.30;99.90
76787;DHT22;65739;51.482;5.702;2023-07-13T13:32:17;21.10;99.90
76787;DHT22;65739;51.482;5.702;2023-07-13T13:34:44;20.80;99.90
76787;DHT22;65739;51.482;5.702;2023-07-13T13:37:23;20.70;99.90
76787;DHT22;65739;51.482;5.702;2023-07-13T13:39:49;20.60;99.90
76787;DHT22;65739;51.482;5.702;2023-07-13T13:42:16;20.50;99.90
76787;DHT22;65739;51.482;5.702;2023-07-13T13:44:41;20.40;99.90
76787;DHT22;65739;51.482;5.702;2023-07-13T13:47:21;20.40;99.90
76787;DHT22;65739;51.482;5.702;2023-07-13T13:49:49;20.20;99.90
76787;DHT22;65739;51.482;5.702;2023-07-13T13:52:14;20.30;99.90
76787;DHT22;65739;51.482;5.702;2023-07-13T13:54:40;20.20;99.90
76787;DHT22;65739;51.482;5.702;2023-07-13T13:57:08;20.10;99.90
76787;DHT22;65739;51.482;5.702;2023-07-13T13:59:33;20.10;99.90
76787;DHT22;65739;51.482;5.702;2023-07-13T14:02:22;20.20;99.90
76787;DHT22;65739;51.482;5.702;2023-07-13T14:04:53;20.40;99.90
76787;DHT22;65739;51.482;5.702;2023-07-13T14:07:19;20.60;99.90
76787;DHT22;65739;51.482;5.702;2023-07-13T14:09:45;20.80;99.90
76787;DHT22;65739;51.482;5.702;2023-07-13T14:12:11;21.10;99.90
76787;DHT22;65739;51.482;5.702;2023-07-13T14:14:37;21.10;99.90
76787;DHT22;65739;51.482;5.702;2023-07-13T14:17:03;21.20;99.90
76787;DHT22;65739;51.482;5.702;2023-07-13T14:19:29;21.30;99.90
76787;DHT22;65739;51.482;5.702;2023-07-13T14:21:55;21.40;99.90
76787;DHT22;65739;51.482;5.702;2023-07-13T14:24:21;21.20;99.90
76787;DHT22;65739;51.482;5.702;2023-07-13T14:26:47;21.30;99.90
76787;DHT22;65739;51.482;5.702;2023-07-13T14:29:15;21.30;99.90
76787;DHT22;65739;51.482;5.702;2023-07-13T14:31:42;21.30;99.90
76787;DHT22;65739;51.482;5.702;2023-07-13T14:34:09;21.30;99.90
76787;DHT22;65739;51.482;5.702;2023-07-13T14:36:41;21.00;99.90
76787;DHT22;65739;51.482;5.702;2023-07-13T14:39:14;20.80;99.90
76787;DHT22;65739;51.482;5.702;2023-07-13T14:41:40;20.80;99.90
76787;DHT22;65739;51.482;5.702;2023-07-13T14:44:14;20.70;99.90
76787;DHT22;65739;51.482;5.702;2023-07-13T14:46:40;20.70;99.90
76787;DHT22;65739;51.482;5.702;2023-07-13T14:49:17;20.80;99.90
76787;DHT22;65739;51.482;5.702;2023-07-13T14:51:46;21.00;99.90
76787;DHT22;65739;51.482;5.702;2023-07-13T14:54:11;21.20;99.90
76787;DHT22;65739;51.482;5.702;2023-07-13T14:56:37;21.20;99.90
76787;DHT22;65739;51.482;5.702;2023-07-13T14:59:03;21.40;99.90
76787;DHT22;65739;51.482;5.702;2023-07-13T15:01:30;21.70;99.90
76787;DHT22;65739;51.482;5.702;2023-07-13T15:03:57;22.00;99.90
76787;DHT22;65739;51.482;5.702;2023-07-13T15:06:23;22.10;99.90
76787;DHT22;65739;51.482;5.702;2023-07-13T15:08:50;21.90;99.90
76787;DHT22;65739;51.482;5.702;2023-07-13T15:11:16;21.70;99.90
76787;DHT22;65739;51.482;5.702;2023-07-13T15:13:42;21.90;99.90
76787;DHT22;65739;51.482;5.702;2023-07-13T15:16:23;22.00;99.90
76787;DHT22;65739;51.482;5.702;2023-07-13T15:18:50;22.50;99.90
76787;DHT22;65739;51.482;5.702;2023-07-13T15:21:23;22.40;99.90
76787;DHT22;65739;51.482;5.702;2023-07-13T15:23:49;22.60;99.90
76787;DHT22;65739;51.482;5.702;2023-07-13T15:26:17;23.00;99.90
76787;DHT22;65739;51.482;5.702;2023-07-13T15:28:44;23.20;99.90
76787;DHT22;65739;51.482;5.702;2023-07-13T15:31:25;23.40;99.90
76787;DHT22;65739;51.482;5.702;2023-07-13T15:33:55;23.20;99.90
76787;DHT22;65739;51.482;5.702;2023-07-13T15:36:23;22.50;99.90
76787;DHT22;65739;51.482;5.702;2023-07-13T15:38:52;22.30;99.90
76787;DHT22;65739;51.482;5.702;2023-07-13T15:41:23;22.20;99.90
76787;DHT22;65739;51.482;5.702;2023-07-13T15:43:51;22.10;99.90
76787;DHT22;65739;51.482;5.702;2023-07-13T15:46:18;22.10;99.90
76787;DHT22;65739;51.482;5.702;2023-07-13T15:48:45;22.10;99.90
76787;DHT22;65739;51.482;5.702;2023-07-13T15:51:15;22.00;99.90
76787;DHT22;65739;51.482;5.702;2023-07-13T15:53:42;22.00;99.90
76787;DHT22;65739;51.482;5.702;2023-07-13T15:56:19;22.20;99.90
76787;DHT22;65739;51.482;5.702;2023-07-13T15:58:46;22.30;99.90
76787;DHT22;65739;51.482;5.702;2023-07-13T16:01:12;22.50;99.90
76787;DHT22;65739;51.482;5.702;2023-07-13T16:03:38;22.60;99.90
76787;DHT22;65739;51.482;5.702;2023-07-13T16:06:21;22.50;99.90
76787;DHT22;65739;51.482;5.702;2023-07-13T16:08:49;23.20;99.90
76787;DHT22;65739;51.482;5.702;2023-07-13T16:11:22;24.20;99.90